sensor_id;sensor_type;location;lat;lon;timestamp;temperature;humidity
18101;DHT22;9177;49.156;8.142;2023-09-08T00:00:52;25.80;99.90
18101;DHT22;9177;49.156;8.142;2023-09-08T00:03:18;25.80;99.90
18101;DHT22;9177;49.156;8.142;2023-09-08T00:05:47;25.80;99.90
18101;DHT22;9177;49.156;8.142;2023-09-08T00:08:15;25.80;99.90
18101;DHT22;9177;49.156;8.142;2023-09-08T00:10:42;25.70;99.90
18101;DHT22;9177;49.156;8.142;2023-09-08T00:13:09;25.80;99.90
18101;DHT22;9177;49.156;8.142;2023-09-08T00:15:36;25.80;99.90
18101;DHT22;9177;49.156;8.142;2023-09-08T00:18:04;25.70;99.90
18101;DHT22;9177;49.156;8.142;2023-09-08T00:20:30;25.70;99.90
18101;DHT22;9177;49.156;8.142;2023-09-08T00:22:57;25.70;99.90
18101;DHT22;9177;49.156;8.142;2023-09-08T00:25:25;25.70;99.90
18101;DHT22;9177;49.156;8.142;2023-09-08T00:27:52;25.70;99.90
18101;DHT22;9177;49.156;8.142;2023-09-08T00:30:19;25.70;99.90
18101;DHT22;9177;49.156;8.142;2023-09-08T00:32:46;25.70;99.90
18101;DHT22;9177;49.156;8.142;2023-09-08T00:35:12;25.70;99.90
18101;DHT22;9177;49.156;8.142;2023-09-08T00:37:39;25.70;99.90
18101;DHT22;9177;49.156;8.142;2023-09-08T00:40:07;25.70;99.90
18101;DHT22;9177;49.156;8.142;2023-09-08T00:42:36;25.70;99.90
18101;DHT22;9177;49.156;8.142;2023-09-08T00:45:03;25.70;99.90
18101;DHT22;9177;49.156;8.142;2023-09-08T00:47:32;25.70;99.90
18101;DHT22;9177;49.156;8.142;2023-09-08T00:49:59;25.70;99.90
18101;DHT22;9177;49.156;8.142;2023-09-08T00:52:26;25.70;99.90
18101;DHT22;9177;49.156;8.142;2023-09-08T00:54:57;25.70;99.90
18101;DHT22;9177;49.156;8.142;2023-09-08T00:57:25;25.70;99.90
18101;DHT22;9177;49.156;8.142;2023-09-08T00:59:53;25.70;99.90
18101;DHT22;9177;49.156;8.142;2023-09-08T01:02:20;25.70;99.90
18101;DHT22;9177;49.156;8.142;2023-09-08T01:04:47;25.70;99.90
18101;DHT22;9177;49.156;8.142;2023-09-08T01:07:15;25.70;99.90
18101;DHT22;9177;49.156;8.142;2023-09-08T01:09:42;25.70;99.90
18101;DHT22;9177;49.156;8.142;2023-09-08T01:12:11;25.70;99.90
18101;DHT22;9177;49.156;8.142;2023-09-08T01:14:38;25.70;99.90
18101;DHT22;9177;49.156;8.142;2023-09-08T01:17:06;25.70;99.90
18101;DHT22;9177;49.156;8.142;2023-09-08T01:19:33;25.70;99.90
18101;DHT22;9177;49.156;8.142;2023-09-08T01:22:21;25.70;99.90
18101;DHT22;9177;49.156;8.142;2023-09-08T01:25:11;25.70;99.90
18101;DHT22;9177;49.156;8.142;2023-09-08T01:27:43;25.70;99.90
18101;DHT22;9177;49.156;8.142;2023-09-08T01:30:12;25.70;99.90
18101;DHT22;9177;49.156;8.142;2023-09-08T01:32:40;25.70;99.90
18101;DHT22;9177;49.156;8.142;2023-09-08T01:35:08;25.70;99.90
18101;DHT22;9177;49.156;8.142;2023-09-08T01:37:40;25.70;99.90
18101;DHT22;9177;49.156;8.142;2023-09-08T01:40:08;25.70;99.90
18101;DHT22;9177;49.156;8.142;2023-09-08T01:42:37;25.60;99.90
18101;DHT22;9177;49.156;8.142;2023-09-08T01:45:04;25.60;99.90
18101;DHT22;9177;49.156;8.142;2023-09-08T01:47:32;25.70;99.90
18101;DHT22;9177;49.156;8.142;2023-09-08T01:49:59;25.70;99.90
18101;DHT22;9177;49.156;8.142;2023-09-08T01:52:26;25.60;99.90
18101;DHT22;9177;49.156;8.142;2023-09-08T01:54:53;25.70;99.90
18101;DHT22;9177;49.156;8.142;2023-09-08T01:57:20;25.70;99.90
18101;DHT22;9177;49.156;8.142;2023-09-08T01:59:48;25.60;99.90
18101;DHT22;9177;49.156;8.142;2023-09-08T02:02:15;25.60;99.90
18101;DHT22;9177;49.156;8.142;2023-09-08T02:04:43;25.70;99.90
18101;DHT22;9177;49.156;8.142;2023-09-08T02:07:09;25.70;99.90
18101;DHT22;9177;49.156;8.142;2023-09-08T02:09:37;25.60;99.90
18101;DHT22;9177;49.156;8.142;2023-09-08T02:12:05;25.60;99.90
18101;DHT22;9177;49.156;8.142;2023-09-08T02:14:32;25.60;99.90
18101;DHT22;9177;49.156;8.142;2023-09-08T02:17:00;25.60;99.90
18101;DHT22;9177;49.156;8.142;2023-09-08T02:19:27;25.60;99.90
18101;DHT22;9177;49.156;8.142;2023-09-08T02:21:54;25.60;99.90
18101;DHT22;9177;49.156;8.142;2023-09-08T02:24:21;25.60;99.90
18101;DHT22;9177;49.156;8.142;2023-09-08T02:26:49;25.60;99.90
18101;DHT22;9177;49.156;8.142;2023-09-08T02:29:15;25.60;99.90
18101;DHT22;9177;49.156;8.142;2023-09-08T02:31:42;25.60;99.90
18101;DHT22;9177;49.156;8.142;2023-09-08T02:34:11;25.60;99.90
18101;DHT22;9177;49.156;8.142;2023-09-08T02:36:38;25.60;99.90
18101;DHT22;9177;49.156;8.142;2023-09-08T02:39:04;25.60;99.90
18101;DHT22;9177;49.156;8.142;2023-09-08T02:41:33;25.60;99.90
18101;DHT22;9177;49.156;8.142;2023-09-08T02:44:03;25.60;99.90
18101;DHT22;9177;49.156;8.142;2023-09-08T02:46:29;25.60;99.90
18101;DHT22;9177;49.156;8.142;2023-09-08T02:48:56;25.60;99.90
18101;DHT22;9177;49.156;8.142;2023-09-08T02:51:25;25.60;99.90
18101;DHT22;9177;49.156;8.142;2023-09-08T02:53:51;25.60;99.90
18101;DHT22;9177;49.156;8.142;2023-09-08T02:56:18;25.60;99.90
18101;DHT22;9177;49.156;8.142;2023-09-08T02:58:45;25.60;99.90
18101;DHT22;9177;49.156;8.142;2023-09-08T03:01:13;25.60;99.90
18101;DHT22;9177;49.156;8.142;2023-09-08T03:03:40;25.50;99.90
18101;DHT22;9177;49.156;8.142;2023-09-08T03:06:08;25.60;99.90
18101;DHT22;9177;49.156;8.142;2023-09-08T03:08:36;25.60;99.90
18101;DHT22;9177;49.156;8.142;2023-09-08T03:11:04;25.50;99.90
18101;DHT22;9177;49.156;8.142;2023-09-08T03:13:32;25.60;99.90
18101;DHT22;9177;49.156;8.142;2023-09-08T03:16:02;25.60;99.90
18101;DHT22;9177;49.156;8.142;2023-09-08T03:18:29;25.60;99.90
18101;DHT22;9177;49.156;8.142;2023-09-08T03:20:58;25.60;99.90
18101;DHT22;9177;49.156;8.142;2023-09-08T03:23:26;25.50;99.90
18101;DHT22;9177;49.156;8.142;2023-09-08T03:25:54;25.50;99.90
18101;DHT22;9177;49.156;8.142;2023-09-08T03:28:21;25.50;99.90
18101;DHT22;9177;49.156;8.142;2023-09-08T03:30:48;25.50;99.90
18101;DHT22;9177;49.156;8.142;2023-09-08T03:33:14;25.50;99.90
18101;DHT22;9177;49.156;8.142;2023-09-08T03:35:41;25.50;99.90
18101;DHT22;9177;49.156;8.142;2023-09-08T03:38:08;25.50;99.90
18101;DHT22;9177;49.156;8.142;2023-09-08T03:40:35;25.50;99.90
18101;DHT22;9177;49.156;8.142;2023-09-08T03:43:03;25.50;99.90
18101;DHT22;9177;49.156;8.142;2023-09-08T03:45:30;25.50;99.90
18101;DHT22;9177;49.156;8.142;2023-09-08T03:47:57;25.50;99.90
18101;DHT22;9177;49.156;8.142;2023-09-08T03:50:24;25.50;99.90
18101;DHT22;9177;49.156;8.142;2023-09-08T03:52:51;25.50;99.90
18101;DHT22;9177;49.156;8.142;2023-09-08T03:55:18;25.50;99.90
18101;DHT22;9177;49.156;8.142;2023-09-08T03:57:45;25.50;99.90
18101;DHT22;9177;49.156;8.142;2023-09-08T04:00:15;25.50;99.90
18101;DHT22;9177;49.156;8.142;2023-09-08T04:02:47;25.50;99.90
18101;DHT22;9177;49.156;8.142;2023-09-08T04:05:14;25.50;99.90
18101;DHT22;9177;49.156;8.142;2023-09-08T04:07:42;25.50;99.90
18101;DHT22;9177;49.156;8.142;2023-09-08T04:10:09;25.50;99.90
18101;DHT22;9177;49.156;8.142;2023-09-08T04:12:36;25.50;99.90
18101;DHT22;9177;49.156;8.142;2023-09-08T04:15:03;25.50;99.90
18101;DHT22;9177;49.156;8.142;2023-09-08T04:17:31;25.50;99.90
18101;DHT22;9177;49.156;8.142;2023-09-08T04:19:59;25.50;99.90
18101;DHT22;9177;49.156;8.142;2023-09-08T04:22:26;25.40;99.90
18101;DHT22;9177;49.156;8.142;2023-09-08T04:24:52;25.50;99.90
18101;DHT22;9177;49.156;8.142;2023-09-08T04:27:21;25.50;99.90
18101;DHT22;9177;49.156;8.142;2023-09-08T04:29:47;25.50;99.90
18101;DHT22;9177;49.156;8.142;2023-09-08T04:32:14;25.40;99.90
18101;DHT22;9177;49.156;8.142;2023-09-08T04:34:43;25.50;99.90
18101;DHT22;9177;49.156;8.142;2023-09-08T04:37:10;25.50;99.90
18101;DHT22;9177;49.156;8.142;2023-09-08T04:39:37;25.50;99.90
18101;DHT22;9177;49.156;8.142;2023-09-08T04:42:07;25.50;99.90
18101;DHT22;9177;49.156;8.142;2023-09-08T04:44:34;25.50;99.90
18101;DHT22;9177;49.156;8.142;2023-09-08T04:47:01;25.50;99.90
18101;DHT22;9177;49.156;8.142;2023-09-08T04:49:27;25.40;99.90
18101;DHT22;9177;49.156;8.142;2023-09-08T04:51:56;25.40;99.90
18101;DHT22;9177;49.156;8.142;2023-09-08T04:54:23;25.40;99.90
18101;DHT22;9177;49.156;8.142;2023-09-08T04:56:52;25.40;99.90
18101;DHT22;9177;49.156;8.142;2023-09-08T04:59:19;25.40;99.90
18101;DHT22;9177;49.156;8.142;2023-09-08T05:01:48;25.40;99.90
18101;DHT22;9177;49.156;8.142;2023-09-08T05:04:18;25.50;99.90
18101;DHT22;9177;49.156;8.142;2023-09-08T05:06:44;25.40;99.90
18101;DHT22;9177;49.156;8.142;2023-09-08T05:09:13;25.40;99.90
18101;DHT22;9177;49.156;8.142;2023-09-08T05:11:40;25.40;99.90
18101;DHT22;9177;49.156;8.142;2023-09-08T05:14:07;25.40;99.90
18101;DHT22;9177;49.156;8.142;2023-09-08T05:16:34;25.40;99.90
18101;DHT22;9177;49.156;8.142;2023-09-08T05:19:10;25.40;99.90
18101;DHT22;9177;49.156;8.142;2023-09-08T05:21:38;25.40;99.90
18101;DHT22;9177;49.156;8.142;2023-09-08T05:24:06;25.40;99.90
18101;DHT22;9177;49.156;8.142;2023-09-08T05:26:36;25.40;99.90
18101;DHT22;9177;49.156;8.142;2023-09-08T05:29:03;25.40;99.90
18101;DHT22;9177;49.156;8.142;2023-09-08T05:31:29;25.40;99.90
18101;DHT22;9177;49.156;8.142;2023-09-08T05:33:56;25.40;99.90
18101;DHT22;9177;49.156;8.142;2023-09-08T05:36:23;25.40;99.90
18101;DHT22;9177;49.156;8.142;2023-09-08T05:38:50;25.40;99.90
18101;DHT22;9177;49.156;8.142;2023-09-08T05:41:17;25.40;99.90
18101;DHT22;9177;49.156;8.142;2023-09-08T05:43:45;25.40;99.90
18101;DHT22;9177;49.156;8.142;2023-09-08T05:46:12;25.40;99.90
18101;DHT22;9177;49.156;8.142;2023-09-08T05:48:39;25.40;99.90
18101;DHT22;9177;49.156;8.142;2023-09-08T05:51:06;25.40;99.90
18101;DHT22;9177;49.156;8.142;2023-09-08T05:53:33;25.40;99.90
18101;DHT22;9177;49.156;8.142;2023-09-08T05:56:01;25.40;99.90
18101;DHT22;9177;49.156;8.142;2023-09-08T05:58:27;25.40;99.90
18101;DHT22;9177;49.156;8.142;2023-09-08T06:00:56;25.40;99.90
18101;DHT22;9177;49.156;8.142;2023-09-08T06:03:23;25.40;99.90
18101;DHT22;9177;49.156;8.142;2023-09-08T06:05:49;25.40;99.90
18101;DHT22;9177;49.156;8.142;2023-09-08T06:08:16;25.40;99.90
18101;DHT22;9177;49.156;8.142;2023-09-08T06:10:43;25.40;99.90
18101;DHT22;9177;49.156;8.142;2023-09-08T06:13:10;25.40;99.90
18101;DHT22;9177;49.156;8.142;2023-09-08T06:15:37;25.40;99.90
18101;DHT22;9177;49.156;8.142;2023-09-08T06:18:05;25.40;99.90
18101;DHT22;9177;49.156;8.142;2023-09-08T06:20:32;25.40;99.90
18101;DHT22;9177;49.156;8.142;2023-09-08T06:22:59;25.40;99.90
18101;DHT22;9177;49.156;8.142;2023-09-08T06:25:26;25.40;99.90
18101;DHT22;9177;49.156;8.142;2023-09-08T06:27:53;25.40;99.90
18101;DHT22;9177;49.156;8.142;2023-09-08T06:30:20;25.40;99.90
18101;DHT22;9177;49.156;8.142;2023-09-08T06:32:47;25.40;99.90
18101;DHT22;9177;49.156;8.142;2023-09-08T06:35:16;25.40;99.90
18101;DHT22;9177;49.156;8.142;2023-09-08T06:37:42;25.40;99.90
18101;DHT22;9177;49.156;8.142;2023-09-08T06:40:09;25.40;99.90
18101;DHT22;9177;49.156;8.142;2023-09-08T06:42:36;25.40;99.90
18101;DHT22;9177;49.156;8.142;2023-09-08T06:45:03;25.40;99.90
18101;DHT22;9177;49.156;8.142;2023-09-08T06:47:30;25.40;99.90
18101;DHT22;9177;49.156;8.142;2023-09-08T06:49:57;25.40;99.90
18101;DHT22;9177;49.156;8.142;2023-09-08T06:52:25;25.40;99.90
18101;DHT22;9177;49.156;8.142;2023-09-08T06:54:52;25.40;99.90
18101;DHT22;9177;49.156;8.142;2023-09-08T06:57:19;25.40;99.90
18101;DHT22;9177;49.156;8.142;2023-09-08T06:59:46;25.40;99.90
18101;DHT22;9177;49.156;8.142;2023-09-08T07:02:13;25.40;99.90
18101;DHT22;9177;49.156;8.142;2023-09-08T07:04:40;25.40;99.90
18101;DHT22;9177;49.156;8.142;2023-09-08T07:07:07;25.40;99.90
18101;DHT22;9177;49.156;8.142;2023-09-08T07:09:35;25.40;99.90
18101;DHT22;9177;49.156;8.142;2023-09-08T07:12:03;25.50;99.90
18101;DHT22;9177;49.156;8.142;2023-09-08T07:14:30;25.50;99.90
18101;DHT22;9177;49.156;8.142;2023-09-08T07:16:57;25.50;99.90
18101;DHT22;9177;49.156;8.142;2023-09-08T07:19:24;25.60;99.90
18101;DHT22;9177;49.156;8.142;2023-09-08T07:21:54;25.60;99.90
18101;DHT22;9177;49.156;8.142;2023-09-08T07:24:21;25.70;99.90
18101;DHT22;9177;49.156;8.142;2023-09-08T07:26:50;25.70;99.90
18101;DHT22;9177;49.156;8.142;2023-09-08T07:29:17;25.70;99.90
18101;DHT22;9177;49.156;8.142;2023-09-08T07:31:44;25.70;99.90
18101;DHT22;9177;49.156;8.142;2023-09-08T07:34:11;25.80;99.90
18101;DHT22;9177;49.156;8.142;2023-09-08T07:36:38;25.80;99.90
18101;DHT22;9177;49.156;8.142;2023-09-08T07:39:05;25.80;99.90
18101;DHT22;9177;49.156;8.142;2023-09-08T07:41:32;25.80;99.90
18101;DHT22;9177;49.156;8.142;2023-09-08T07:44:01;25.90;99.90
18101;DHT22;9177;49.156;8.142;2023-09-08T07:46:28;25.90;99.90
18101;DHT22;9177;49.156;8.142;2023-09-08T07:48:55;25.90;99.90
18101;DHT22;9177;49.156;8.142;2023-09-08T07:51:22;25.90;99.90
18101;DHT22;9177;49.156;8.142;2023-09-08T07:53:49;26.00;99.90
18101;DHT22;9177;49.156;8.142;2023-09-08T07:56:15;26.00;99.90
18101;DHT22;9177;49.156;8.142;2023-09-08T07:58:42;26.00;99.90
18101;DHT22;9177;49.156;8.142;2023-09-08T08:01:12;26.00;99.90
18101;DHT22;9177;49.156;8.142;2023-09-08T08:03:40;26.00;99.90
18101;DHT22;9177;49.156;8.142;2023-09-08T08:06:07;26.10;99.90
18101;DHT22;9177;49.156;8.142;2023-09-08T08:08:34;26.10;99.90
18101;DHT22;9177;49.156;8.142;2023-09-08T08:11:08;26.10;99.90
18101;DHT22;9177;49.156;8.142;2023-09-08T08:13:35;26.10;99.90
18101;DHT22;9177;49.156;8.142;2023-09-08T08:16:02;26.10;99.90
18101;DHT22;9177;49.156;8.142;2023-09-08T08:18:30;26.10;99.90
18101;DHT22;9177;49.156;8.142;2023-09-08T08:20:57;26.20;99.90
18101;DHT22;9177;49.156;8.142;2023-09-08T08:23:26;26.20;99.90
18101;DHT22;9177;49.156;8.142;2023-09-08T08:25:52;26.20;99.90
18101;DHT22;9177;49.156;8.142;2023-09-08T08:28:19;26.20;99.90
18101;DHT22;9177;49.156;8.142;2023-09-08T08:30:46;26.20;99.90
18101;DHT22;9177;49.156;8.142;2023-09-08T08:33:13;26.20;99.90
18101;DHT22;9177;49.156;8.142;2023-09-08T08:35:48;26.20;99.90
18101;DHT22;9177;49.156;8.142;2023-09-08T08:38:15;26.30;99.90
18101;DHT22;9177;49.156;8.142;2023-09-08T08:40:42;26.30;99.90
18101;DHT22;9177;49.156;8.142;2023-09-08T08:43:09;26.30;99.90
18101;DHT22;9177;49.156;8.142;2023-09-08T08:45:37;26.30;99.90
18101;DHT22;9177;49.156;8.142;2023-09-08T08:48:05;26.30;99.90
18101;DHT22;9177;49.156;8.142;2023-09-08T08:50:32;26.30;99.90
18101;DHT22;9177;49.156;8.142;2023-09-08T08:53:00;26.30;99.90
18101;DHT22;9177;49.156;8.142;2023-09-08T08:55:29;26.30;99.90
18101;DHT22;9177;49.156;8.142;2023-09-08T08:58:02;26.30;99.90
18101;DHT22;9177;49.156;8.142;2023-09-08T09:00:29;26.30;99.90
18101;DHT22;9177;49.156;8.142;2023-09-08T09:03:01;26.30;99.90
18101;DHT22;9177;49.156;8.142;2023-09-08T09:05:28;26.40;99.90
18101;DHT22;9177;49.156;8.142;2023-09-08T09:07:57;26.40;99.90
18101;DHT22;9177;49.156;8.142;2023-09-08T09:10:26;26.40;99.90
18101;DHT22;9177;49.156;8.142;2023-09-08T09:12:53;26.40;99.90
18101;DHT22;9177;49.156;8.142;2023-09-08T09:15:28;26.40;99.90
18101;DHT22;9177;49.156;8.142;2023-09-08T09:18:02;26.40;99.90
18101;DHT22;9177;49.156;8.142;2023-09-08T09:20:30;26.40;99.90
18101;DHT22;9177;49.156;8.142;2023-09-08T09:22:57;26.40;99.90
18101;DHT22;9177;49.156;8.142;2023-09-08T09:25:26;26.50;99.90
18101;DHT22;9177;49.156;8.142;2023-09-08T09:27:54;26.50;99.90
18101;DHT22;9177;49.156;8.142;2023-09-08T09:30:23;26.50;99.90
18101;DHT22;9177;49.156;8.142;2023-09-08T09:33:01;26.50;99.90
18101;DHT22;9177;49.156;8.142;2023-09-08T09:35:41;26.50;99.90
18101;DHT22;9177;49.156;8.142;2023-09-08T09:38:08;26.50;99.90
18101;DHT22;9177;49.156;8.142;2023-09-08T09:40:37;26.50;99.90
18101;DHT22;9177;49.156;8.142;2023-09-08T09:43:05;26.50;99.90
18101;DHT22;9177;49.156;8.142;2023-09-08T09:45:33;26.50;99.90
18101;DHT22;9177;49.156;8.142;2023-09-08T09:48:01;26.50;99.90
18101;DHT22;9177;49.156;8.142;2023-09-08T09:50:29;26.50;99.90
18101;DHT22;9177;49.156;8.142;2023-09-08T09:52:57;26.50;99.90
18101;DHT22;9177;49.156;8.142;2023-09-08T09:55:26;26.50;99.90
18101;DHT22;9177;49.156;8.142;2023-09-08T09:57:56;26.50;99.90
18101;DHT22;9177;49.156;8.142;2023-09-08T10:00:26;26.50;99.90
18101;DHT22;9177;49.156;8.142;2023-09-08T10:02:54;26.50;99.90
18101;DHT22;9177;49.156;8.142;2023-09-08T10:05:21;26.50;99.90
18101;DHT22;9177;49.156;8.142;2023-09-08T10:07:48;26.60;99.90
18101;DHT22;9177;49.156;8.142;2023-09-08T10:10:16;26.60;99.90
18101;DHT22;9177;49.156;8.142;2023-09-08T10:12:44;26.60;99.90
18101;DHT22;9177;49.156;8.142;2023-09-08T10:15:17;26.60;99.90
18101;DHT22;9177;49.156;8.142;2023-09-08T10:17:44;26.60;99.90
18101;DHT22;9177;49.156;8.142;2023-09-08T10:20:14;26.50;99.90
18101;DHT22;9177;49.156;8.142;2023-09-08T10:22:42;26.60;99.90
18101;DHT22;9177;49.156;8.142;2023-09-08T10:25:12;26.60;99.90
18101;DHT22;9177;49.156;8.142;2023-09-08T10:27:41;26.60;99.90
18101;DHT22;9177;49.156;8.142;2023-09-08T10:30:08;26.60;99.90
18101;DHT22;9177;49.156;8.142;2023-09-08T10:32:38;26.60;99.90
18101;DHT22;9177;49.156;8.142;2023-09-08T10:35:07;26.60;99.90
18101;DHT22;9177;49.156;8.142;2023-09-08T10:37:34;26.70;99.90
18101;DHT22;9177;49.156;8.142;2023-09-08T10:40:20;26.70;99.90
18101;DHT22;9177;49.156;8.142;2023-09-08T10:42:47;26.70;99.90
18101;DHT22;9177;49.156;8.142;2023-09-08T10:45:15;26.60;99.90
18101;DHT22;9177;49.156;8.142;2023-09-08T10:47:56;26.70;99.90
18101;DHT22;9177;49.156;8.142;2023-09-08T10:50:30;26.70;99.90
18101;DHT22;9177;49.156;8.142;2023-09-08T10:53:09;26.70;99.90
18101;DHT22;9177;49.156;8.142;2023-09-08T10:55:40;26.80;99.90
18101;DHT22;9177;49.156;8.142;2023-09-08T10:58:09;26.80;99.90
18101;DHT22;9177;49.156;8.142;2023-09-08T11:00:44;26.80;99.90
18101;DHT22;9177;49.156;8.142;2023-09-08T11:03:13;26.80;99.90
18101;DHT22;9177;49.156;8.142;2023-09-08T11:05:44;26.80;99.90
18101;DHT22;9177;49.156;8.142;2023-09-08T11:08:10;26.80;99.90
18101;DHT22;9177;49.156;8.142;2023-09-08T11:10:39;26.80;99.90
18101;DHT22;9177;49.156;8.142;2023-09-08T11:13:06;26.80;99.90
18101;DHT22;9177;49.156;8.142;2023-09-08T11:15:33;26.80;99.90
18101;DHT22;9177;49.156;8.142;2023-09-08T11:18:09;26.80;99.90
18101;DHT22;9177;49.156;8.142;2023-09-08T11:20:37;26.80;99.90
18101;DHT22;9177;49.156;8.142;2023-09-08T11:23:04;26.90;99.90
18101;DHT22;9177;49.156;8.142;2023-09-08T11:25:32;26.90;99.90
18101;DHT22;9177;49.156;8.142;2023-09-08T11:28:00;27.00;99.90
18101;DHT22;9177;49.156;8.142;2023-09-08T11:30:27;27.00;99.90
18101;DHT22;9177;49.156;8.142;2023-09-08T11:32:54;27.00;99.90
18101;DHT22;9177;49.156;8.142;2023-09-08T11:35:26;27.00;99.90
18101;DHT22;9177;49.156;8.142;2023-09-08T11:37:59;27.10;99.90
18101;DHT22;9177;49.156;8.142;2023-09-08T11:40:26;27.10;99.90
18101;DHT22;9177;49.156;8.142;2023-09-08T11:42:53;27.20;99.90
18101;DHT22;9177;49.156;8.142;2023-09-08T11:45:20;27.30;99.90
18101;DHT22;9177;49.156;8.142;2023-09-08T11:47:48;27.30;99.90
18101;DHT22;9177;49.156;8.142;2023-09-08T11:50:16;27.30;99.80
18101;DHT22;9177;49.156;8.142;2023-09-08T11:52:46;27.40;99.80
18101;DHT22;9177;49.156;8.142;2023-09-08T11:55:15;27.50;99.70
18101;DHT22;9177;49.156;8.142;2023-09-08T11:57:42;27.50;99.60
18101;DHT22;9177;49.156;8.142;2023-09-08T12:00:10;27.50;99.50
18101;DHT22;9177;49.156;8.142;2023-09-08T12:02:42;27.50;99.50
18101;DHT22;9177;49.156;8.142;2023-09-08T12:05:11;27.60;99.50
18101;DHT22;9177;49.156;8.142;2023-09-08T12:07:40;27.60;99.40
18101;DHT22;9177;49.156;8.142;2023-09-08T12:10:10;27.70;99.30
18101;DHT22;9177;49.156;8.142;2023-09-08T12:12:45;27.70;99.30
18101;DHT22;9177;49.156;8.142;2023-09-08T12:17:54;27.70;99.20
18101;DHT22;9177;49.156;8.142;2023-09-08T12:20:21;27.70;99.20
18101;DHT22;9177;49.156;8.142;2023-09-08T12:22:48;27.80;99.10
18101;DHT22;9177;49.156;8.142;2023-09-08T12:25:16;27.80;99.00
18101;DHT22;9177;49.156;8.142;2023-09-08T12:27:46;28.00;99.00
18101;DHT22;9177;49.156;8.142;2023-09-08T12:30:19;28.00;98.80
18101;DHT22;9177;49.156;8.142;2023-09-08T12:32:48;28.10;98.70
18101;DHT22;9177;49.156;8.142;2023-09-08T12:35:20;28.10;98.60
18101;DHT22;9177;49.156;8.142;2023-09-08T12:37:53;28.20;98.60
18101;DHT22;9177;49.156;8.142;2023-09-08T12:40:20;28.20;98.50
18101;DHT22;9177;49.156;8.142;2023-09-08T12:42:49;28.20;98.50
18101;DHT22;9177;49.156;8.142;2023-09-08T12:45:16;28.20;98.50
18101;DHT22;9177;49.156;8.142;2023-09-08T12:47:43;28.30;98.40
18101;DHT22;9177;49.156;8.142;2023-09-08T12:50:10;28.40;98.30
18101;DHT22;9177;49.156;8.142;2023-09-08T12:52:38;28.40;98.30
18101;DHT22;9177;49.156;8.142;2023-09-08T12:55:06;28.40;98.20
18101;DHT22;9177;49.156;8.142;2023-09-08T12:57:33;28.40;98.20
18101;DHT22;9177;49.156;8.142;2023-09-08T13:00:02;28.40;98.20
18101;DHT22;9177;49.156;8.142;2023-09-08T13:02:29;28.50;98.20
18101;DHT22;9177;49.156;8.142;2023-09-08T13:04:56;28.50;98.10
18101;DHT22;9177;49.156;8.142;2023-09-08T13:07:23;28.50;98.10
18101;DHT22;9177;49.156;8.142;2023-09-08T13:09:51;28.50;98.10
18101;DHT22;9177;49.156;8.142;2023-09-08T13:12:18;28.50;98.10
18101;DHT22;9177;49.156;8.142;2023-09-08T13:14:45;28.60;98.00
18101;DHT22;9177;49.156;8.142;2023-09-08T13:17:13;28.60;98.00
18101;DHT22;9177;49.156;8.142;2023-09-08T13:19:41;28.60;98.00
18101;DHT22;9177;49.156;8.142;2023-09-08T13:22:08;28.60;97.90
18101;DHT22;9177;49.156;8.142;2023-09-08T13:24:35;28.60;97.90
18101;DHT22;9177;49.156;8.142;2023-09-08T13:27:03;28.60;97.90
18101;DHT22;9177;49.156;8.142;2023-09-08T13:29:29;28.70;97.80
18101;DHT22;9177;49.156;8.142;2023-09-08T13:31:56;28.70;97.80
18101;DHT22;9177;49.156;8.142;2023-09-08T13:34:25;28.70;97.80
18101;DHT22;9177;49.156;8.142;2023-09-08T13:36:52;28.70;97.80
18101;DHT22;9177;49.156;8.142;2023-09-08T13:39:18;28.70;98.20
18101;DHT22;9177;49.156;8.142;2023-09-08T13:41:47;28.70;97.80
18101;DHT22;9177;49.156;8.142;2023-09-08T13:44:16;28.70;97.80
18101;DHT22;9177;49.156;8.142;2023-09-08T13:46:44;28.70;97.80
18101;DHT22;9177;49.156;8.142;2023-09-08T13:49:11;28.70;97.70
18101;DHT22;9177;49.156;8.142;2023-09-08T13:51:40;28.80;97.70
18101;DHT22;9177;49.156;8.142;2023-09-08T13:54:07;28.80;97.70
18101;DHT22;9177;49.156;8.142;2023-09-08T13:56:34;28.80;97.70
18101;DHT22;9177;49.156;8.142;2023-09-08T13:59:01;28.80;97.60
18101;DHT22;9177;49.156;8.142;2023-09-08T14:01:28;28.80;97.50
18101;DHT22;9177;49.156;8.142;2023-09-08T14:03:55;28.80;97.60
18101;DHT22;9177;49.156;8.142;2023-09-08T14:06:22;28.80;97.60
18101;DHT22;9177;49.156;8.142;2023-09-08T14:08:51;28.80;97.50
18101;DHT22;9177;49.156;8.142;2023-09-08T14:11:18;28.90;97.50
18101;DHT22;9177;49.156;8.142;2023-09-08T14:13:45;28.90;97.50
18101;DHT22;9177;49.156;8.142;2023-09-08T14:16:12;28.90;97.50
18101;DHT22;9177;49.156;8.142;2023-09-08T14:18:38;28.80;97.50
18101;DHT22;9177;49.156;8.142;2023-09-08T14:21:06;28.80;97.60
18101;DHT22;9177;49.156;8.142;2023-09-08T14:23:33;28.80;97.50
18101;DHT22;9177;49.156;8.142;2023-09-08T14:26:01;28.80;97.60
18101;DHT22;9177;49.156;8.142;2023-09-08T14:28:28;28.90;97.50
18101;DHT22;9177;49.156;8.142;2023-09-08T14:30:57;28.90;97.50
18101;DHT22;9177;49.156;8.142;2023-09-08T14:33:24;28.90;97.40
18101;DHT22;9177;49.156;8.142;2023-09-08T14:35:51;28.90;97.40
18101;DHT22;9177;49.156;8.142;2023-09-08T14:38:19;28.90;97.40
18101;DHT22;9177;49.156;8.142;2023-09-08T14:40:54;28.90;97.40
18101;DHT22;9177;49.156;8.142;2023-09-08T14:43:23;28.90;97.30
18101;DHT22;9177;49.156;8.142;2023-09-08T14:45:50;28.90;97.30
18101;DHT22;9177;49.156;8.142;2023-09-08T14:48:17;28.90;97.70
18101;DHT22;9177;49.156;8.142;2023-09-08T14:50:44;28.90;97.30
18101;DHT22;9177;49.156;8.142;2023-09-08T14:53:14;28.90;97.40
18101;DHT22;9177;49.156;8.142;2023-09-08T14:55:44;28.90;97.40
18101;DHT22;9177;49.156;8.142;2023-09-08T14:58:13;28.80;97.40
18101;DHT22;9177;49.156;8.142;2023-09-08T15:00:41;28.80;97.40
18101;DHT22;9177;49.156;8.142;2023-09-08T15:03:08;28.80;97.40
18101;DHT22;9177;49.156;8.142;2023-09-08T15:05:36;28.90;97.50
18101;DHT22;9177;49.156;8.142;2023-09-08T15:08:03;28.90;97.50
18101;DHT22;9177;49.156;8.142;2023-09-08T15:10:30;28.90;97.50
18101;DHT22;9177;49.156;8.142;2023-09-08T15:12:57;28.90;97.60
18101;DHT22;9177;49.156;8.142;2023-09-08T15:15:23;28.80;97.70
18101;DHT22;9177;49.156;8.142;2023-09-08T15:17:52;28.90;97.70
18101;DHT22;9177;49.156;8.142;2023-09-08T15:20:19;29.00;97.70
18101;DHT22;9177;49.156;8.142;2023-09-08T15:22:47;29.00;97.90
18101;DHT22;9177;49.156;8.142;2023-09-08T15:25:14;29.00;98.00
18101;DHT22;9177;49.156;8.142;2023-09-08T15:27:41;29.00;98.20
18101;DHT22;9177;49.156;8.142;2023-09-08T15:30:09;29.00;98.20
18101;DHT22;9177;49.156;8.142;2023-09-08T15:32:36;29.00;98.20
18101;DHT22;9177;49.156;8.142;2023-09-08T15:35:06;28.90;98.30
18101;DHT22;9177;49.156;8.142;2023-09-08T15:37:33;28.90;98.50
18101;DHT22;9177;49.156;8.142;2023-09-08T15:40:00;28.80;98.50
18101;DHT22;9177;49.156;8.142;2023-09-08T15:42:28;28.80;98.50
18101;DHT22;9177;49.156;8.142;2023-09-08T15:44:55;28.80;98.60
18101;DHT22;9177;49.156;8.142;2023-09-08T15:47:22;28.80;98.60
18101;DHT22;9177;49.156;8.142;2023-09-08T15:49:49;28.90;98.50
18101;DHT22;9177;49.156;8.142;2023-09-08T15:52:18;29.00;98.40